Time;durP1;ratioP1;P1;durP2;ratioP2;P2;SDS_P1;SDS_P2;PMS_P1;PMS_P2;Temp;Humidity;BMP_temperature;BMP_pressure;BME280_temperature;BME280_humidity;BME280_pressure;Samples;Min_cycle;Max_cycle;Signal;HPM_P1;HPM_P2
2023/12/25 00:01:16;;;;;;;130.75;57.00;;;18.80;70.00;;;;;;5036501;28;20215;-41
2023/12/25 00:03:42;;;;;;;130.80;57.58;;;18.70;69.90;;;;;;5045388;28;20121;-41
2023/12/25 00:06:07;;;;;;;130.55;57.78;;;18.70;69.90;;;;;;5054545;28;20053;-42
2023/12/25 00:08:33;;;;;;;130.63;57.55;;;18.70;70.00;;;;;;5042389;28;20046;-40
2023/12/25 00:10:59;;;;;;;131.90;57.65;;;18.70;70.00;;;;;;5044448;28;20064;-43
2023/12/25 00:13:25;;;;;;;130.52;57.22;;;18.70;70.00;;;;;;5038590;28;20050;-42
2023/12/25 00:15:51;;;;;;;129.75;57.30;;;18.70;69.90;;;;;;5044330;28;20042;-44
2023/12/25 00:18:16;;;;;;;129.98;57.22;;;18.60;70.10;;;;;;5042015;28;20041;-41
2023/12/25 00:20:45;;;;;;;129.05;57.08;;;18.60;70.00;;;;;;5046695;28;20410;-43
2023/12/25 00:23:12;;;;;;;129.57;57.50;;;18.60;70.10;;;;;;5041934;28;20515;-42
2023/12/25 00:25:38;;;;;;;130.18;57.00;;;18.60;70.20;;;;;;5045893;28;20156;-42
2023/12/25 00:28:04;;;;;;;129.18;56.95;;;18.50;70.30;;;;;;5045266;28;20126;-42
2023/12/25 00:30:29;;;;;;;130.30;57.08;;;18.50;70.30;;;;;;5041913;28;20092;-39
2023/12/25 00:32:55;;;;;;;130.00;57.28;;;18.50;70.40;;;;;;5034005;28;28896;-41
2023/12/25 00:35:21;;;;;;;129.30;57.10;;;18.50;70.30;;;;;;5042543;28;20033;-40
2023/12/25 00:37:47;;;;;;;129.15;57.28;;;18.50;70.50;;;;;;5043811;28;20140;-41
2023/12/25 00:40:13;;;;;;;128.63;57.15;;;18.50;70.50;;;;;;5045092;28;20186;-43
2023/12/25 00:42:38;;;;;;;129.25;57.30;;;18.50;70.50;;;;;;5043240;28;20038;-39
2023/12/25 00:45:05;;;;;;;130.23;57.60;;;18.40;70.40;;;;;;5039458;28;20046;-40
2023/12/25 00:47:30;;;;;;;128.68;56.85;;;18.40;70.40;;;;;;5039415;28;20537;-43
2023/12/25 00:49:56;;;;;;;129.05;56.95;;;18.40;70.50;;;;;;5040049;28;20514;-42
2023/12/25 00:52:22;;;;;;;129.48;57.35;;;18.40;70.60;;;;;;5040939;28;20064;-39
2023/12/25 00:54:47;;;;;;;129.25;57.50;;;18.40;70.50;;;;;;5055587;28;20033;-40
2023/12/25 00:57:14;;;;;;;129.38;57.08;;;18.40;70.70;;;;;;5041397;28;20038;-43
2023/12/25 00:59:40;;;;;;;129.35;57.45;;;18.40;70.70;;;;;;5044903;28;20037;-40
2023/12/25 01:02:05;;;;;;;129.40;57.17;;;18.40;70.70;;;;;;5037154;28;20092;-46
2023/12/25 01:04:31;;;;;;;128.98;57.03;;;18.30;70.60;;;;;;5041978;28;20099;-41
2023/12/25 01:06:57;;;;;;;131.43;57.72;;;18.30;70.80;;;;;;5038448;28;21552;-45
2023/12/25 01:09:22;;;;;;;129.18;57.05;;;18.30;70.70;;;;;;5040465;28;20045;-47
2023/12/25 01:11:48;;;;;;;129.07;57.13;;;18.30;70.80;;;;;;5044245;28;20080;-41
2023/12/25 01:14:14;;;;;;;130.30;57.17;;;18.20;70.80;;;;;;5046305;28;20029;-40
2023/12/25 01:16:39;;;;;;;128.02;56.58;;;18.20;70.80;;;;;;5040301;28;20038;-42
2023/12/25 01:19:05;;;;;;;127.30;56.10;;;18.20;70.80;;;;;;5044456;28;20095;-42
2023/12/25 01:21:34;;;;;;;129.75;57.10;;;18.20;70.90;;;;;;5042455;28;20045;-42
2023/12/25 01:24:00;;;;;;;128.35;56.63;;;18.20;70.80;;;;;;5040015;28;20704;-42
2023/12/25 01:26:25;;;;;;;129.65;57.15;;;18.20;70.80;;;;;;5041746;28;20124;-42
2023/12/25 01:28:51;;;;;;;128.90;56.60;;;18.20;70.90;;;;;;5044648;28;20076;-42
2023/12/25 01:31:17;;;;;;;128.13;56.92;;;18.20;70.80;;;;;;5041475;28;20033;-42
2023/12/25 01:33:43;;;;;;;129.45;57.03;;;18.20;70.80;;;;;;5035871;28;22114;-42
2023/12/25 01:36:09;;;;;;;127.97;57.00;;;18.20;70.80;;;;;;5043392;28;20037;-42
2023/12/25 01:38:34;;;;;;;128.30;56.80;;;18.10;70.90;;;;;;5038062;28;20096;-44
2023/12/25 01:41:00;;;;;;;128.02;56.50;;;18.10;70.90;;;;;;5038358;28;20146;-48
2023/12/25 01:43:26;;;;;;;129.02;56.72;;;18.10;70.90;;;;;;5036721;28;20148;-41
2023/12/25 01:45:51;;;;;;;128.00;56.75;;;18.10;71.10;;;;;;5040077;28;20053;-44
2023/12/25 01:48:17;;;;;;;128.30;56.83;;;18.10;71.10;;;;;;5040910;28;20056;-40
2023/12/25 01:50:43;;;;;;;129.73;56.75;;;18.10;71.10;;;;;;5039878;28;20042;-41
2023/12/25 01:53:09;;;;;;;127.35;56.63;;;18.10;71.10;;;;;;5039929;28;20753;-40
2023/12/25 01:55:36;;;;;;;128.70;56.70;;;18.00;71.10;;;;;;5037690;28;20041;-40
2023/12/25 01:58:01;;;;;;;128.65;56.60;;;18.00;71.00;;;;;;5044201;28;20467;-41
2023/12/25 02:00:27;;;;;;;128.50;56.85;;;18.00;71.10;;;;;;5041718;28;20034;-40
2023/12/25 02:02:53;;;;;;;128.07;56.83;;;18.00;71.00;;;;;;5040577;28;20045;-42
2023/12/25 02:05:19;;;;;;;127.35;56.58;;;18.00;71.10;;;;;;5041151;28;20545;-43
2023/12/25 02:07:46;;;;;;;127.72;56.65;;;18.00;71.10;;;;;;5039234;28;20092;-41
2023/12/25 02:10:25;;;;;;;128.73;57.15;;;18.00;71.20;;;;;;5039092;28;20065;-40
2023/12/25 02:12:50;;;;;;;128.52;56.90;;;18.00;71.20;;;;;;5040805;28;20531;-43
2023/12/25 02:15:16;;;;;;;128.65;57.22;;;17.90;71.20;;;;;;5042398;28;20026;-41
2023/12/25 02:17:42;;;;;;;127.43;56.53;;;17.90;71.20;;;;;;5041387;28;20132;-42
2023/12/25 02:20:09;;;;;;;128.02;56.75;;;18.00;71.30;;;;;;5038511;28;20056;-42
2023/12/25 02:22:34;;;;;;;127.78;56.92;;;17.90;71.20;;;;;;5040184;28;20144;-44
2023/12/25 02:25:05;;;;;;;127.75;56.75;;;17.90;71.30;;;;;;5038179;28;20195;-41
2023/12/25 02:27:31;;;;;;;127.53;56.25;;;17.90;71.20;;;;;;5036728;28;20107;-44
2023/12/25 02:29:57;;;;;;;127.07;56.47;;;17.90;71.40;;;;;;5041798;28;20042;-43
2023/12/25 02:32:22;;;;;;;130.13;56.90;;;17.90;71.30;;;;;;5038527;28;20095;-43
2023/12/25 02:34:48;;;;;;;127.55;56.75;;;17.90;71.40;;;;;;5038697;28;20033;-42
2023/12/25 02:37:14;;;;;;;126.93;56.65;;;17.90;71.40;;;;;;5040090;28;20248;-42
2023/12/25 02:39:40;;;;;;;127.43;56.38;;;17.90;71.40;;;;;;5040413;28;20053;-41
2023/12/25 02:42:05;;;;;;;128.57;57.13;;;17.80;71.50;;;;;;5035639;28;20136;-40
2023/12/25 02:44:31;;;;;;;128.18;56.75;;;17.80;71.50;;;;;;5039474;28;20042;-41
2023/12/25 02:46:57;;;;;;;127.85;56.97;;;17.80;71.50;;;;;;5037267;28;20081;-40
2023/12/25 02:49:22;;;;;;;127.63;56.88;;;17.80;71.60;;;;;;5039161;28;20479;-42
2023/12/25 02:51:48;;;;;;;126.28;56.13;;;17.80;71.60;;;;;;5037761;28;20033;-42
2023/12/25 02:54:14;;;;;;;127.68;56.53;;;17.80;71.70;;;;;;5041772;28;20416;-42
2023/12/25 02:56:40;;;;;;;127.65;56.65;;;17.80;71.70;;;;;;5043403;28;20434;-42
2023/12/25 02:59:06;;;;;;;127.40;56.65;;;17.80;71.80;;;;;;5038125;28;20107;-40
2023/12/25 03:01:32;;;;;;;127.43;56.72;;;17.80;71.80;;;;;;5039913;28;20037;-42
2023/12/25 03:03:57;;;;;;;127.60;56.92;;;17.80;71.80;;;;;;5042767;28;20091;-41
2023/12/25 03:06:23;;;;;;;127.95;57.15;;;17.80;71.90;;;;;;5036381;28;20107;-41
2023/12/25 03:08:49;;;;;;;127.60;56.92;;;17.70;72.50;;;;;;5038414;28;20427;-41
2023/12/25 03:11:14;;;;;;;127.30;56.55;;;17.70;71.90;;;;;;5039568;28;20183;-44
2023/12/25 03:13:40;;;;;;;127.55;56.55;;;17.70;71.90;;;;;;5039263;28;20049;-41
2023/12/25 03:16:06;;;;;;;128.15;57.00;;;17.70;71.90;;;;;;5038552;28;20078;-40
2023/12/25 03:18:32;;;;;;;127.32;56.58;;;17.70;72.00;;;;;;5040250;28;20038;-40
2023/12/25 03:20:58;;;;;;;127.57;56.70;;;17.70;72.00;;;;;;5042908;28;20041;-44
2023/12/25 03:23:24;;;;;;;127.68;56.83;;;17.70;72.00;;;;;;5035431;28;20068;-42
2023/12/25 03:25:49;;;;;;;127.55;56.60;;;17.70;72.10;;;;;;5040630;28;20078;-42
2023/12/25 03:28:15;;;;;;;126.43;56.35;;;17.70;72.20;;;;;;5038350;28;20072;-41
2023/12/25 03:30:41;;;;;;;127.32;56.40;;;17.70;72.20;;;;;;5038360;28;20748;-41
2023/12/25 03:33:09;;;;;;;127.10;56.42;;;17.70;72.20;;;;;;5036919;28;20048;-47
2023/12/25 03:35:35;;;;;;;127.47;56.50;;;17.70;72.20;;;;;;5041378;28;20034;-43
2023/12/25 03:38:01;;;;;;;126.90;56.35;;;17.60;72.20;;;;;;5035917;28;20088;-43
2023/12/25 03:40:27;;;;;;;126.57;56.13;;;17.60;72.30;;;;;;5041462;28;20043;-40
2023/12/25 03:42:54;;;;;;;127.18;56.67;;;17.60;72.30;;;;;;5040092;28;20115;-42
2023/12/25 03:45:20;;;;;;;126.78;56.10;;;17.60;72.30;;;;;;5041053;28;20041;-40
2023/12/25 03:47:45;;;;;;;126.93;56.35;;;17.60;72.30;;;;;;5043768;28;20498;-43
2023/12/25 03:50:11;;;;;;;127.25;56.25;;;17.60;72.40;;;;;;5042606;28;20553;-45
2023/12/25 03:52:37;;;;;;;127.40;56.53;;;17.60;72.40;;;;;;5040162;28;20048;-44
2023/12/25 03:55:03;;;;;;;126.78;56.17;;;17.60;72.50;;;;;;5040658;28;20298;-44
2023/12/25 03:57:29;;;;;;;127.47;56.63;;;17.60;72.50;;;;;;5043327;28;20033;-43
2023/12/25 03:59:54;;;;;;;127.15;56.55;;;17.50;73.30;;;;;;5045084;28;21410;-42
2023/12/25 04:02:20;;;;;;;127.43;56.22;;;17.50;72.60;;;;;;5041215;28;20041;-43
2023/12/25 04:04:46;;;;;;;126.97;56.20;;;17.50;72.60;;;;;;5044977;28;20164;-43
2023/12/25 04:07:11;;;;;;;126.80;56.25;;;17.50;72.70;;;;;;5041352;28;20393;-41
2023/12/25 04:09:38;;;;;;;126.63;56.58;;;17.50;72.70;;;;;;5039760;28;20060;-43
2023/12/25 04:12:04;;;;;;;125.88;55.95;;;17.50;72.80;;;;;;5041722;28;20033;-41
2023/12/25 04:14:30;;;;;;;125.80;55.95;;;17.50;72.80;;;;;;5041960;28;20044;-45
2023/12/25 04:16:56;;;;;;;126.00;55.97;;;17.50;72.80;;;;;;5041968;28;20041;-41
2023/12/25 04:19:21;;;;;;;126.93;56.47;;;17.50;72.90;;;;;;5043893;28;20388;-43
2023/12/25 04:21:47;;;;;;;127.07;56.58;;;17.40;72.90;;;;;;5041614;28;20614;-41
2023/12/25 04:24:13;;;;;;;126.85;56.60;;;17.40;72.90;;;;;;5042182;28;20104;-42
2023/12/25 04:26:38;;;;;;;126.68;56.33;;;17.40;73.00;;;;;;5044832;28;20053;-41
2023/12/25 04:29:04;;;;;;;127.35;56.65;;;17.40;73.00;;;;;;5043205;28;20040;-43
2023/12/25 04:31:30;;;;;;;128.05;56.53;;;17.40;73.00;;;;;;5045628;28;20132;-42
2023/12/25 04:33:55;;;;;;;126.45;55.97;;;17.40;73.00;;;;;;5044159;28;21059;-44
2023/12/25 04:36:21;;;;;;;126.68;56.17;;;17.40;73.10;;;;;;5043150;28;20519;-41
2023/12/25 04:38:47;;;;;;;126.45;56.13;;;17.40;73.10;;;;;;5037823;28;20803;-45
2023/12/25 04:41:13;;;;;;;126.78;56.50;;;17.40;73.10;;;;;;5039503;28;20116;-40
2023/12/25 04:43:39;;;;;;;127.20;56.28;;;17.40;73.10;;;;;;5041055;28;20083;-41
2023/12/25 04:46:05;;;;;;;126.43;56.03;;;17.40;73.20;;;;;;5042346;28;20037;-42
2023/12/25 04:48:31;;;;;;;126.07;56.03;;;17.40;73.20;;;;;;5040955;28;20037;-41
2023/12/25 04:50:58;;;;;;;126.03;56.00;;;17.30;73.20;;;;;;5041423;28;20034;-44
2023/12/25 04:53:24;;;;;;;126.85;56.72;;;17.30;73.20;;;;;;5040634;28;20601;-43
2023/12/25 04:55:51;;;;;;;126.38;56.10;;;17.30;73.20;;;;;;5038722;28;20046;-42
2023/12/25 04:58:17;;;;;;;125.63;55.67;;;17.30;73.30;;;;;;5041448;28;20510;-41
2023/12/25 05:00:42;;;;;;;126.32;56.35;;;17.30;73.20;;;;;;5041355;28;20078;-39
2023/12/25 05:03:09;;;;;;;125.18;55.50;;;17.40;73.30;;;;;;5040009;28;20042;-39
2023/12/25 05:05:35;;;;;;;127.22;56.28;;;17.30;73.40;;;;;;5041716;28;20143;-39
2023/12/25 05:08:00;;;;;;;126.63;56.50;;;17.30;73.40;;;;;;5044778;28;20499;-38
2023/12/25 05:10:26;;;;;;;125.75;55.92;;;17.30;73.50;;;;;;5044243;28;20389;-39
2023/12/25 05:12:51;;;;;;;126.47;56.53;;;17.30;73.50;;;;;;5038810;28;20280;-38
2023/12/25 05:15:17;;;;;;;126.88;56.65;;;17.30;73.50;;;;;;5040648;28;20443;-42
2023/12/25 05:17:43;;;;;;;125.80;55.70;;;17.30;73.60;;;;;;5039532;28;20068;-38
2023/12/25 05:20:09;;;;;;;127.95;56.65;;;17.30;73.50;;;;;;5041742;28;20033;-38
2023/12/25 05:22:35;;;;;;;126.55;56.55;;;17.30;73.60;;;;;;5039446;28;20099;-39
2023/12/25 05:25:01;;;;;;;125.05;55.67;;;17.30;73.60;;;;;;5038362;28;20038;-39
2023/12/25 05:27:28;;;;;;;126.90;56.17;;;17.20;73.50;;;;;;5043674;28;20100;-40
2023/12/25 05:29:54;;;;;;;126.57;56.45;;;17.20;73.60;;;;;;5042106;28;20044;-39
2023/12/25 05:32:21;;;;;;;126.70;56.80;;;17.20;73.70;;;;;;5038578;28;20044;-38
2023/12/25 05:34:46;;;;;;;125.85;56.03;;;17.20;73.70;;;;;;5042416;28;20042;-39
2023/12/25 05:37:12;;;;;;;125.97;55.92;;;17.20;73.80;;;;;;5037022;28;20570;-40
2023/12/25 05:39:38;;;;;;;126.47;56.50;;;17.20;73.80;;;;;;5039570;28;20594;-38
2023/12/25 05:42:04;;;;;;;124.32;55.20;;;17.20;73.80;;;;;;5040686;28;20077;-38
2023/12/25 05:44:29;;;;;;;126.78;56.45;;;17.30;73.80;;;;;;5041451;28;20060;-39
2023/12/25 05:46:55;;;;;;;126.35;56.17;;;17.20;73.80;;;;;;5042181;28;20046;-38
2023/12/25 05:49:21;;;;;;;125.78;55.97;;;17.20;73.90;;;;;;5041768;28;20149;-38
2023/12/25 05:51:47;;;;;;;126.38;56.45;;;17.20;73.90;;;;;;5035168;28;20135;-39
2023/12/25 05:54:12;;;;;;;125.28;55.70;;;17.20;74.00;;;;;;5042760;28;20041;-40
2023/12/25 05:56:38;;;;;;;126.03;56.10;;;17.20;74.70;;;;;;5042392;28;20041;-38
2023/12/25 05:59:05;;;;;;;125.60;56.08;;;17.20;74.00;;;;;;5039317;28;20348;-39
2023/12/25 06:01:30;;;;;;;125.93;56.15;;;17.20;74.10;;;;;;5040131;28;20052;-40
2023/12/25 06:03:57;;;;;;;126.45;56.47;;;17.20;74.20;;;;;;5038294;28;20420;-39
2023/12/25 06:06:23;;;;;;;125.57;55.80;;;17.10;74.20;;;;;;5043117;28;20133;-39
2023/12/25 06:08:48;;;;;;;125.30;55.92;;;17.10;74.20;;;;;;5043364;28;20512;-38
2023/12/25 06:11:14;;;;;;;125.88;56.05;;;17.10;74.30;;;;;;5045077;28;20368;-39
2023/12/25 06:13:40;;;;;;;125.97;56.20;;;17.20;74.30;;;;;;5038871;28;20168;-40
2023/12/25 06:16:06;;;;;;;125.43;56.05;;;17.10;74.40;;;;;;5041388;28;20143;-39
2023/12/25 06:18:31;;;;;;;125.68;55.90;;;17.10;74.30;;;;;;5041857;28;20511;-38
2023/12/25 06:20:57;;;;;;;126.15;56.40;;;17.10;74.30;;;;;;5042361;28;20037;-37
2023/12/25 06:23:23;;;;;;;125.28;55.95;;;17.10;74.40;;;;;;5042668;28;20045;-39
2023/12/25 06:25:50;;;;;;;125.82;55.90;;;17.20;74.40;;;;;;5043273;28;20057;-39
2023/12/25 06:28:16;;;;;;;126.57;56.28;;;17.10;74.40;;;;;;5039723;28;20140;-40
2023/12/25 06:30:41;;;;;;;125.07;55.67;;;17.10;74.40;;;;;;5043613;28;20124;-39
2023/12/25 06:33:07;;;;;;;125.43;55.78;;;17.10;74.50;;;;;;5039890;28;20041;-38
2023/12/25 06:35:33;;;;;;;126.18;56.58;;;17.10;74.50;;;;;;5043224;28;20121;-40
2023/12/25 06:37:58;;;;;;;127.65;56.45;;;17.10;74.40;;;;;;5042525;28;20848;-38
2023/12/25 06:40:24;;;;;;;124.22;55.28;;;17.10;74.40;;;;;;5039982;28;20045;-38
2023/12/25 06:42:50;;;;;;;126.47;56.35;;;17.10;74.50;;;;;;5039828;28;20523;-38
2023/12/25 06:45:15;;;;;;;126.22;56.30;;;17.10;74.50;;;;;;5036231;28;20038;-38
2023/12/25 06:47:41;;;;;;;126.05;56.45;;;17.10;74.50;;;;;;5044501;28;20050;-39
2023/12/25 06:50:07;;;;;;;124.72;55.42;;;17.10;74.50;;;;;;5040693;28;20050;-38
2023/12/25 06:52:32;;;;;;;125.32;55.88;;;17.10;74.60;;;;;;5035595;28;20081;-38
2023/12/25 06:54:58;;;;;;;125.75;55.72;;;17.10;74.70;;;;;;5040652;28;20029;-39
2023/12/25 06:57:24;;;;;;;126.97;56.85;;;17.10;74.70;;;;;;5038703;28;20034;-39
2023/12/25 06:59:49;;;;;;;125.57;56.25;;;17.10;74.70;;;;;;5034143;28;20030;-40
2023/12/25 07:02:15;;;;;;;127.50;56.20;;;17.10;74.70;;;;;;5039998;28;20042;-41
2023/12/25 07:04:42;;;;;;;126.45;56.45;;;17.10;74.70;;;;;;5041088;28;20042;-38
2023/12/25 07:07:09;;;;;;;126.38;56.35;;;17.00;74.70;;;;;;5037952;28;20584;-39
2023/12/25 07:09:35;;;;;;;126.65;56.28;;;17.10;74.70;;;;;;5037803;28;20551;-38
2023/12/25 07:12:02;;;;;;;126.38;55.90;;;17.00;74.90;;;;;;5039555;28;20172;-38
2023/12/25 07:14:27;;;;;;;126.35;56.67;;;17.10;75.30;;;;;;5039281;28;20049;-40
2023/12/25 07:16:53;;;;;;;126.07;56.38;;;17.10;75.80;;;;;;5042784;28;20129;-38
2023/12/25 07:19:19;;;;;;;127.78;56.65;;;17.10;76.00;;;;;;5044493;28;20612;-40
2023/12/25 07:21:44;;;;;;;131.27;56.78;;;17.00;75.90;;;;;;5043063;28;20042;-39
2023/12/25 07:24:10;;;;;;;128.98;56.20;;;17.10;76.40;;;;;;5041766;28;20045;-38
2023/12/25 07:26:36;;;;;;;128.98;57.03;;;17.10;76.50;;;;;;5043898;28;20037;-38
2023/12/25 07:29:02;;;;;;;129.00;56.60;;;17.10;76.60;;;;;;5044842;28;20046;-38
2023/12/25 07:31:28;;;;;;;126.85;55.97;;;17.10;76.70;;;;;;5040717;28;20499;-39
2023/12/25 07:33:53;;;;;;;126.38;56.30;;;17.00;76.80;;;;;;5041378;28;20375;-38
2023/12/25 07:36:19;;;;;;;127.50;56.70;;;17.00;76.80;;;;;;5039681;28;20403;-39
2023/12/25 07:38:45;;;;;;;128.65;56.55;;;17.00;76.80;;;;;;5041174;28;20041;-38
2023/12/25 07:41:11;;;;;;;125.88;56.05;;;17.00;76.70;;;;;;5045443;28;20413;-40
2023/12/25 07:43:38;;;;;;;127.57;56.72;;;17.10;76.60;;;;;;5043622;28;21057;-39
2023/12/25 07:46:08;;;;;;;127.10;55.80;;;17.00;76.40;;;;;;5043801;28;20096;-38
2023/12/25 07:48:34;;;;;;;126.97;55.97;;;17.00;76.20;;;;;;5042266;28;20042;-40
2023/12/25 07:51:00;;;;;;;126.28;56.15;;;17.00;76.90;;;;;;5039118;28;20037;-38
2023/12/25 07:53:26;;;;;;;127.07;55.67;;;17.00;76.10;;;;;;5040657;28;20946;-39
2023/12/25 07:55:51;;;;;;;125.82;56.20;;;17.00;76.00;;;;;;5041785;28;20030;-39
2023/12/25 07:58:17;;;;;;;126.30;56.28;;;17.00;75.80;;;;;;5039736;28;20119;-40
2023/12/25 08:00:43;;;;;;;127.00;55.78;;;17.00;75.80;;;;;;5042508;28;20033;-39
2023/12/25 08:03:11;;;;;;;126.55;56.40;;;17.00;75.90;;;;;;5038271;28;20162;-38
2023/12/25 08:05:38;;;;;;;126.95;56.13;;;17.00;75.80;;;;;;5042910;28;20049;-40
2023/12/25 08:08:06;;;;;;;126.28;56.25;;;17.00;75.70;;;;;;5044271;28;20049;-38
2023/12/25 08:10:32;;;;;;;125.78;56.10;;;17.00;75.90;;;;;;5042557;28;20047;-38
2023/12/25 08:13:02;;;;;;;124.32;55.25;;;17.00;75.60;;;;;;5041731;28;20037;-39
2023/12/25 08:15:28;;;;;;;126.13;56.25;;;17.00;75.60;;;;;;5042998;28;20113;-39
2023/12/25 08:17:54;;;;;;;126.35;56.28;;;17.00;75.50;;;;;;5040735;28;20065;-39
2023/12/25 08:20:21;;;;;;;125.88;55.92;;;17.00;75.50;;;;;;5042058;28;20038;-41
2023/12/25 08:22:47;;;;;;;125.80;55.83;;;17.00;75.60;;;;;;5041619;28;20059;-39
2023/12/25 08:25:12;;;;;;;124.70;55.58;;;17.00;75.50;;;;;;5040141;28;20038;-38
2023/12/25 08:27:38;;;;;;;126.72;56.13;;;17.00;76.20;;;;;;5039092;28;20056;-40
2023/12/25 08:30:05;;;;;;;127.03;55.88;;;17.00;75.40;;;;;;5042426;28;20069;-40
2023/12/25 08:32:31;;;;;;;127.18;56.53;;;17.00;75.40;;;;;;5033883;28;20144;-38
2023/12/25 08:34:57;;;;;;;127.07;56.70;;;17.00;75.50;;;;;;5037785;28;20059;-38
2023/12/25 08:37:22;;;;;;;127.72;56.33;;;17.00;75.50;;;;;;5041495;28;20053;-40
2023/12/25 08:39:48;;;;;;;126.97;56.10;;;17.00;75.60;;;;;;5042327;28;20033;-39
2023/12/25 08:42:15;;;;;;;127.45;56.50;;;17.00;75.70;;;;;;5037733;28;20149;-47
2023/12/25 08:44:41;;;;;;;126.90;56.47;;;17.00;75.70;;;;;;5041893;28;20099;-39
2023/12/25 08:47:07;;;;;;;125.45;55.85;;;17.00;75.70;;;;;;5041693;28;20061;-39
2023/12/25 08:49:33;;;;;;;126.38;56.10;;;17.00;75.70;;;;;;5036283;28;20042;-39
2023/12/25 08:51:58;;;;;;;126.40;56.28;;;17.00;75.50;;;;;;5033771;28;20045;-39
2023/12/25 08:54:24;;;;;;;125.05;55.65;;;17.00;75.50;;;;;;5036588;28;20514;-37
2023/12/25 08:56:50;;;;;;;127.57;56.20;;;17.00;75.50;;;;;;5027718;28;20061;-40
2023/12/25 08:59:17;;;;;;;125.28;55.75;;;17.10;75.50;;;;;;5039899;28;20033;-43
2023/12/25 09:01:42;;;;;;;128.15;56.72;;;17.20;75.30;;;;;;5037477;28;20052;-43
2023/12/25 09:04:08;;;;;;;128.80;56.28;;;17.30;75.30;;;;;;5037609;28;20034;-41
2023/12/25 09:06:34;;;;;;;130.43;56.13;;;17.40;75.30;;;;;;5039925;28;20060;-40
2023/12/25 09:08:59;;;;;;;127.10;56.55;;;17.50;75.60;;;;;;5036771;28;20042;-41
2023/12/25 09:11:25;;;;;;;128.50;56.28;;;17.60;75.70;;;;;;5034830;28;20116;-43
2023/12/25 09:13:51;;;;;;;126.75;56.20;;;17.70;75.70;;;;;;5035292;28;20108;-40
2023/12/25 09:16:16;;;;;;;127.00;55.95;;;17.70;75.70;;;;;;5041188;28;20084;-39
2023/12/25 09:18:42;;;;;;;127.70;56.47;;;17.80;76.00;;;;;;5040838;28;20136;-43
2023/12/25 09:21:08;;;;;;;128.05;56.83;;;17.90;76.00;;;;;;5042510;28;22185;-39
2023/12/25 09:23:35;;;;;;;127.70;56.33;;;17.90;76.00;;;;;;5040723;28;20045;-39
2023/12/25 09:26:00;;;;;;;129.50;57.67;;;18.00;76.00;;;;;;5033053;28;20123;-40
2023/12/25 09:28:26;;;;;;;129.90;57.55;;;18.00;76.10;;;;;;5042001;28;20135;-43
2023/12/25 09:30:51;;;;;;;129.55;57.55;;;18.10;76.20;;;;;;5040189;28;20059;-41
2023/12/25 09:33:17;;;;;;;131.45;57.95;;;18.10;76.10;;;;;;5032269;28;20525;-42
2023/12/25 09:35:43;;;;;;;129.52;57.20;;;18.20;76.20;;;;;;5037470;28;20048;-39
2023/12/25 09:38:08;;;;;;;129.77;57.50;;;18.30;76.30;;;;;;5036801;28;20069;-41
2023/12/25 09:40:34;;;;;;;130.20;57.58;;;18.30;76.30;;;;;;5040012;28;20041;-38
2023/12/25 09:43:03;;;;;;;131.55;58.05;;;18.40;76.30;;;;;;5037762;28;20034;-38
2023/12/25 09:45:37;;;;;;;130.32;57.50;;;18.40;76.40;;;;;;5038176;28;20061;-37
2023/12/25 09:48:05;;;;;;;129.85;57.47;;;18.50;76.40;;;;;;5039423;28;20053;-38
2023/12/25 09:50:32;;;;;;;130.02;57.35;;;18.50;76.30;;;;;;5038466;28;20065;-38
2023/12/25 09:52:58;;;;;;;130.15;57.53;;;18.50;76.40;;;;;;5037035;28;20575;-38
2023/12/25 09:55:25;;;;;;;130.95;57.65;;;18.50;76.40;;;;;;5039298;28;20050;-38
2023/12/25 09:57:51;;;;;;;131.43;58.22;;;18.60;76.60;;;;;;5038922;28;20175;-40
2023/12/25 10:00:21;;;;;;;129.63;57.28;;;18.70;77.30;;;;;;5030886;28;20030;-40
2023/12/25 10:02:49;;;;;;;130.07;57.55;;;18.70;76.60;;;;;;5033542;28;20060;-39
2023/12/25 10:05:15;;;;;;;130.57;57.47;;;18.70;76.50;;;;;;5040042;28;20099;-37
2023/12/25 10:07:41;;;;;;;130.07;57.22;;;18.80;76.90;;;;;;5038908;28;20053;-38
2023/12/25 10:10:09;;;;;;;131.52;58.10;;;18.80;76.70;;;;;;5038982;28;20063;-39
2023/12/25 10:12:34;;;;;;;129.70;57.08;;;18.80;76.60;;;;;;5039653;28;20175;-38
2023/12/25 10:15:00;;;;;;;131.90;57.47;;;18.80;74.20;;;;;;5043962;28;20152;-39
2023/12/25 10:17:25;;;;;;;131.10;57.90;;;18.70;74.70;;;;;;5039061;28;20041;-39
2023/12/25 10:19:56;;;;;;;130.70;57.60;;;18.70;75.40;;;;;;5039045;28;20045;-40
2023/12/25 10:22:32;;;;;;;131.25;58.13;;;18.80;75.40;;;;;;5032929;28;20040;-39
2023/12/25 10:25:08;;;;;;;131.75;58.05;;;18.90;75.40;;;;;;5039559;28;20042;-41
2023/12/25 10:27:35;;;;;;;131.07;57.78;;;19.00;75.40;;;;;;5037658;28;20053;-37
2023/12/25 10:30:03;;;;;;;130.55;57.42;;;19.00;75.30;;;;;;5039101;28;20152;-40
2023/12/25 10:32:29;;;;;;;131.18;57.83;;;19.10;75.30;;;;;;5041603;28;20046;-39
2023/12/25 10:35:12;;;;;;;130.88;57.72;;;19.10;75.70;;;;;;5037115;28;20064;-38
2023/12/25 10:37:39;;;;;;;131.18;57.90;;;19.10;75.30;;;;;;5036231;28;20186;-38
2023/12/25 10:40:25;;;;;;;130.80;57.55;;;19.10;75.70;;;;;;5041241;28;20067;-38
2023/12/25 10:42:53;;;;;;;132.07;57.80;;;19.20;75.70;;;;;;5041250;28;20047;-39
2023/12/25 10:45:22;;;;;;;131.90;58.38;;;19.20;75.30;;;;;;5034732;28;20044;-40
2023/12/25 10:47:52;;;;;;;133.10;58.08;;;19.30;75.90;;;;;;5039054;28;20468;-39
2023/12/25 10:50:22;;;;;;;130.88;57.22;;;19.30;75.60;;;;;;5037987;28;20052;-40
2023/12/25 10:52:50;;;;;;;133.23;57.75;;;19.30;75.70;;;;;;5039955;28;20045;-45
2023/12/25 10:55:24;;;;;;;131.63;57.42;;;19.30;74.90;;;;;;5040770;28;20057;-44
2023/12/25 10:57:52;;;;;;;136.73;58.25;;;19.30;75.20;;;;;;5044237;28;20163;-47
2023/12/25 11:00:20;;;;;;;134.57;57.72;;;19.10;71.90;;;;;;5045026;28;20068;-46
2023/12/25 11:02:51;;;;;;;137.02;58.65;;;18.90;72.20;;;;;;5043932;28;20037;-45
2023/12/25 11:05:17;;;;;;;132.73;57.72;;;18.80;73.30;;;;;;5042954;28;20057;-46
2023/12/25 11:07:43;;;;;;;134.73;57.67;;;18.70;74.10;;;;;;5042461;28;20081;-44
2023/12/25 11:10:11;;;;;;;134.25;57.55;;;18.60;74.60;;;;;;5044071;28;20040;-44
2023/12/25 11:12:38;;;;;;;133.98;57.65;;;18.60;73.70;;;;;;5040084;28;20045;-43
2023/12/25 11:15:05;;;;;;;136.02;57.50;;;18.60;73.20;;;;;;5046728;28;20578;-46
2023/12/25 11:17:35;;;;;;;132.80;57.67;;;18.60;73.00;;;;;;5043542;28;20049;-43
2023/12/25 11:20:08;;;;;;;130.85;56.90;;;18.60;72.90;;;;;;5048159;28;20145;-43
2023/12/25 11:22:36;;;;;;;130.25;56.90;;;18.60;73.10;;;;;;5043307;28;21085;-47
2023/12/25 11:25:03;;;;;;;131.52;57.60;;;18.60;73.00;;;;;;5044623;28;20041;-42
2023/12/25 11:27:32;;;;;;;133.02;57.97;;;18.50;72.80;;;;;;5043268;28;20049;-42
2023/12/25 11:30:07;;;;;;;130.98;57.65;;;18.50;72.90;;;;;;5047198;28;20033;-43
2023/12/25 11:32:36;;;;;;;136.32;58.20;;;18.60;73.00;;;;;;5040305;28;20057;-42
2023/12/25 11:35:02;;;;;;;131.07;57.22;;;18.60;73.00;;;;;;5045238;28;20088;-42
2023/12/25 11:37:30;;;;;;;131.20;57.25;;;18.50;73.10;;;;;;5043795;28;20045;-43
2023/12/25 11:40:01;;;;;;;129.20;57.13;;;18.50;73.30;;;;;;5042433;28;20503;-44
2023/12/25 11:42:27;;;;;;;131.10;57.20;;;18.50;73.20;;;;;;5044655;28;20606;-44
2023/12/25 11:45:00;;;;;;;129.85;57.05;;;18.50;73.00;;;;;;5046147;28;20308;-45
2023/12/25 11:47:28;;;;;;;131.85;57.72;;;18.50;73.10;;;;;;5045584;28;20049;-40
2023/12/25 11:49:55;;;;;;;130.43;57.30;;;18.50;73.90;;;;;;5043902;28;20577;-39
2023/12/25 11:52:42;;;;;;;132.23;57.67;;;18.50;73.50;;;;;;5036943;28;20040;-38
2023/12/25 11:55:09;;;;;;;131.45;57.97;;;18.50;73.40;;;;;;5045231;28;20110;-42
2023/12/25 11:57:35;;;;;;;136.05;58.00;;;18.50;74.20;;;;;;5038451;28;20067;-43
2023/12/25 12:00:01;;;;;;;150.50;59.53;;;18.50;74.20;;;;;;5044110;28;20368;-42
2023/12/25 12:02:27;;;;;;;143.32;60.60;;;18.50;75.40;;;;;;5042271;28;20116;-45
2023/12/25 12:04:53;;;;;;;145.98;61.42;;;18.50;75.50;;;;;;5041177;28;20122;-39
2023/12/25 12:07:18;;;;;;;138.23;59.55;;;18.50;75.50;;;;;;5047576;28;20545;-40
2023/12/25 12:09:44;;;;;;;143.63;59.90;;;18.40;75.10;;;;;;5038762;28;20033;-43
2023/12/25 12:12:10;;;;;;;140.93;60.00;;;18.50;75.30;;;;;;5038668;28;20056;-41
2023/12/25 12:14:37;;;;;;;144.50;58.83;;;18.50;75.50;;;;;;5037835;28;20030;-44